Time;durP1;ratioP1;P1;durP2;ratioP2;P2;SDS_P1;SDS_P2;PMS_P1;PMS_P2;Temp;Humidity;BMP_temperature;BMP_pressure;BME280_temperature;BME280_humidity;BME280_pressure;Samples;Min_cycle;Max_cycle;Signal;HPM_P1;HPM_P2
2022/02/24 00:02:19;;;;;;;2.08;0.65;;;;;;;;;;5061557;28;20064;-42
2022/02/24 00:04:44;;;;;;;1.80;0.75;;;;;;;;;;5052887;28;20025;-46
2022/02/24 00:07:09;;;;;;;1.65;0.80;;;;;;;;;;5085240;28;20027;-49
2022/02/24 00:09:35;;;;;;;2.35;0.70;;;;;;;;;;5072327;28;20389;-45
2022/02/24 00:12:02;;;;;;;1.67;0.43;;;;;;;;;;5089149;28;20489;-47
2022/02/24 00:14:27;;;;;;;1.02;0.40;;;;;;;;;;5074725;28;20394;-49
2022/02/24 00:16:52;;;;;;;2.15;0.35;;;;;;;;;;5077798;28;20032;-47
2022/02/24 00:19:18;;;;;;;1.67;0.70;;;;;;;;;;5072604;28;20107;-47
2022/02/24 00:21:43;;;;;;;1.65;0.63;;;;;;;;;;5072890;28;20377;-46
2022/02/24 00:24:09;;;;;;;1.43;0.60;;;;;;;;;;5043143;28;20075;-43
2022/02/24 00:26:34;;;;;;;0.90;0.60;;;;;;;;;;5058933;28;20275;-48
2022/02/24 00:28:59;;;;;;;0.75;0.38;;;;;;;;;;5065011;28;20362;-49
2022/02/24 00:31:25;;;;;;;1.57;0.53;;;;;;;;;;5068393;28;20032;-47
2022/02/24 00:33:51;;;;;;;0.65;0.45;;;;;;;;;;5066768;28;20291;-49
2022/02/24 00:36:16;;;;;;;1.40;0.55;;;;;;;;;;5064594;28;20425;-44
2022/02/24 00:38:41;;;;;;;2.07;0.50;;;;;;;;;;5091090;28;20037;-49
2022/02/24 00:41:06;;;;;;;1.00;0.55;;;;;;;;;;5076827;28;20296;-45
2022/02/24 00:43:32;;;;;;;1.75;0.50;;;;;;;;;;5071952;28;20107;-47
2022/02/24 00:45:57;;;;;;;1.75;0.52;;;;;;;;;;5072108;28;20397;-49
2022/02/24 00:48:22;;;;;;;1.25;0.40;;;;;;;;;;5052839;28;20374;-43
2022/02/24 00:50:47;;;;;;;2.53;0.88;;;;;;;;;;5082297;28;20530;-46
2022/02/24 00:53:12;;;;;;;1.90;0.52;;;;;;;;;;5069318;28;20823;-47
2022/02/24 00:55:37;;;;;;;0.90;0.40;;;;;;;;;;5057201;28;20465;-44
2022/02/24 00:58:03;;;;;;;1.55;0.80;;;;;;;;;;5072095;28;20747;-44
2022/02/24 01:00:29;;;;;;;1.77;0.60;;;;;;;;;;5073066;28;20422;-47
2022/02/24 01:02:54;;;;;;;1.60;0.50;;;;;;;;;;5063630;28;20087;-47
2022/02/24 01:05:19;;;;;;;1.88;0.43;;;;;;;;;;5072693;28;20031;-46
2022/02/24 01:07:44;;;;;;;1.95;0.80;;;;;;;;;;5080903;28;20451;-46
2022/02/24 01:10:09;;;;;;;1.67;0.60;;;;;;;;;;5074554;28;20107;-44
2022/02/24 01:12:35;;;;;;;1.58;0.57;;;;;;;;;;5071785;28;20693;-46
2022/02/24 01:15:06;;;;;;;1.05;0.50;;;;;;;;;;5071673;28;20496;-47
2022/02/24 01:17:31;;;;;;;0.93;0.50;;;;;;;;;;5073773;28;20020;-48
2022/02/24 01:19:56;;;;;;;2.38;0.60;;;;;;;;;;5073640;28;20480;-44
2022/02/24 01:22:22;;;;;;;1.33;0.50;;;;;;;;;;5050477;28;20369;-47
2022/02/24 01:24:47;;;;;;;1.05;0.43;;;;;;;;;;5064868;28;20162;-48
2022/02/24 01:27:12;;;;;;;0.95;0.47;;;;;;;;;;5067835;28;20037;-47
2022/02/24 01:29:37;;;;;;;1.97;0.70;;;;;;;;;;5052238;28;20040;-47
2022/02/24 01:32:03;;;;;;;0.90;0.30;;;;;;;;;;5071152;28;20356;-47
2022/02/24 01:34:28;;;;;;;2.38;0.60;;;;;;;;;;5071250;28;20059;-44
2022/02/24 01:36:54;;;;;;;0.60;0.30;;;;;;;;;;5087564;28;20037;-45
2022/02/24 01:39:19;;;;;;;1.67;0.40;;;;;;;;;;5071878;28;20039;-48
2022/02/24 01:41:45;;;;;;;1.90;0.43;;;;;;;;;;5066375;28;20469;-44
2022/02/24 01:44:11;;;;;;;1.23;0.50;;;;;;;;;;5071102;28;20038;-46
2022/02/24 01:46:36;;;;;;;1.75;0.52;;;;;;;;;;5083259;28;20036;-47
2022/02/24 01:49:03;;;;;;;1.00;0.30;;;;;;;;;;5090797;28;20420;-47
2022/02/24 01:51:28;;;;;;;0.50;0.30;;;;;;;;;;5086471;28;20036;-49
2022/02/24 01:53:53;;;;;;;0.93;0.40;;;;;;;;;;5056420;28;20390;-46
2022/02/24 01:56:19;;;;;;;0.97;0.40;;;;;;;;;;5078313;28;20400;-47
2022/02/24 01:58:44;;;;;;;1.77;0.57;;;;;;;;;;5063127;28;20358;-47
2022/02/24 02:01:09;;;;;;;1.30;0.30;;;;;;;;;;5070710;28;20263;-45
2022/02/24 02:03:35;;;;;;;1.10;0.30;;;;;;;;;;5074649;28;20064;-47
2022/02/24 02:06:00;;;;;;;1.17;0.43;;;;;;;;;;5072072;28;20286;-43
2022/02/24 02:08:27;;;;;;;1.67;0.60;;;;;;;;;;5053986;28;20044;-43
2022/02/24 02:10:52;;;;;;;0.93;0.40;;;;;;;;;;5073835;28;20031;-43
2022/02/24 02:13:18;;;;;;;0.85;0.30;;;;;;;;;;5073305;28;20120;-45
2022/02/24 02:15:43;;;;;;;2.00;0.40;;;;;;;;;;5084842;28;20090;-45
2022/02/24 02:18:08;;;;;;;1.67;0.45;;;;;;;;;;5084017;28;20028;-45
2022/02/24 02:20:36;;;;;;;0.73;0.40;;;;;;;;;;5081392;28;20016;-45
2022/02/24 02:23:01;;;;;;;1.92;0.30;;;;;;;;;;5066454;28;20025;-47
2022/02/24 02:25:26;;;;;;;1.48;0.30;;;;;;;;;;5065332;28;20467;-46
2022/02/24 02:27:52;;;;;;;1.52;0.30;;;;;;;;;;5075433;28;20043;-48
2022/02/24 02:30:17;;;;;;;0.80;0.50;;;;;;;;;;5079581;28;20024;-44
2022/02/24 02:32:43;;;;;;;1.88;0.30;;;;;;;;;;5076135;28;20063;-45
2022/02/24 02:35:08;;;;;;;0.60;0.30;;;;;;;;;;5083624;28;20020;-47
2022/02/24 02:37:34;;;;;;;0.70;0.30;;;;;;;;;;5086615;28;20020;-45
2022/02/24 02:39:59;;;;;;;0.65;0.30;;;;;;;;;;5075820;28;20095;-46
2022/02/24 02:42:24;;;;;;;0.70;0.30;;;;;;;;;;5078433;28;20086;-46
2022/02/24 02:44:49;;;;;;;0.80;0.22;;;;;;;;;;5074105;28;20274;-49
2022/02/24 02:47:15;;;;;;;0.40;0.20;;;;;;;;;;5074799;28;20052;-43
2022/02/24 02:49:40;;;;;;;0.77;0.30;;;;;;;;;;5083986;28;20024;-45
2022/02/24 02:52:06;;;;;;;0.90;0.20;;;;;;;;;;5080821;28;20549;-42
2022/02/24 02:54:31;;;;;;;0.93;0.40;;;;;;;;;;5047692;28;20536;-48
2022/02/24 02:56:57;;;;;;;0.88;0.30;;;;;;;;;;5071419;28;20092;-50
2022/02/24 02:59:22;;;;;;;0.83;0.20;;;;;;;;;;5073373;28;20040;-44
2022/02/24 03:01:51;;;;;;;1.73;0.30;;;;;;;;;;5075102;28;20274;-46
2022/02/24 03:04:16;;;;;;;2.25;0.45;;;;;;;;;;5094503;28;20273;-50
2022/02/24 03:06:41;;;;;;;2.00;0.65;;;;;;;;;;5094059;28;20032;-48
2022/02/24 03:09:07;;;;;;;0.97;0.30;;;;;;;;;;5084278;28;20028;-45
2022/02/24 03:11:32;;;;;;;0.43;0.40;;;;;;;;;;5071905;28;20385;-43
2022/02/24 03:13:57;;;;;;;2.13;0.50;;;;;;;;;;5057624;28;20824;-43
2022/02/24 03:16:22;;;;;;;0.88;0.20;;;;;;;;;;5056151;28;20354;-44
2022/02/24 03:18:47;;;;;;;0.70;0.20;;;;;;;;;;5073471;28;20021;-46
2022/02/24 03:21:13;;;;;;;1.07;0.40;;;;;;;;;;5082897;28;20299;-44
2022/02/24 03:23:39;;;;;;;1.90;0.30;;;;;;;;;;5068463;28;20286;-50
2022/02/24 03:26:04;;;;;;;0.47;0.30;;;;;;;;;;5063797;28;20348;-45
2022/02/24 03:28:30;;;;;;;0.82;0.25;;;;;;;;;;5053804;28;20469;-45
2022/02/24 03:30:55;;;;;;;1.35;0.40;;;;;;;;;;5068681;28;20039;-45
2022/02/24 03:33:20;;;;;;;0.90;0.40;;;;;;;;;;5055493;28;20040;-44
2022/02/24 03:35:45;;;;;;;0.55;0.45;;;;;;;;;;5073441;28;20112;-45
2022/02/24 03:38:10;;;;;;;0.85;0.40;;;;;;;;;;5089412;28;20097;-47
2022/02/24 03:40:36;;;;;;;1.30;0.43;;;;;;;;;;5055531;28;20024;-49
2022/02/24 03:43:01;;;;;;;0.55;0.17;;;;;;;;;;5076605;28;20623;-48
2022/02/24 03:45:26;;;;;;;1.42;0.25;;;;;;;;;;5079855;28;20393;-46
2022/02/24 03:47:52;;;;;;;0.82;0.25;;;;;;;;;;5073619;28;20032;-44
2022/02/24 03:50:17;;;;;;;1.05;0.30;;;;;;;;;;5072609;28;20416;-47
2022/02/24 03:52:42;;;;;;;1.20;0.38;;;;;;;;;;5080439;28;20028;-42
2022/02/24 03:55:08;;;;;;;0.43;0.20;;;;;;;;;;5048460;28;20028;-47
2022/02/24 03:57:33;;;;;;;1.08;0.35;;;;;;;;;;5069955;28;20028;-46
2022/02/24 03:59:58;;;;;;;1.73;0.30;;;;;;;;;;5077695;28;20016;-45
2022/02/24 04:02:23;;;;;;;1.13;0.40;;;;;;;;;;5077085;28;20487;-45
2022/02/24 04:04:49;;;;;;;1.27;0.32;;;;;;;;;;5081877;28;20131;-46
2022/02/24 04:07:14;;;;;;;1.23;0.30;;;;;;;;;;5073739;28;20401;-43
2022/02/24 04:09:39;;;;;;;1.05;0.20;;;;;;;;;;5072187;28;20121;-48
2022/02/24 04:12:05;;;;;;;1.55;0.20;;;;;;;;;;5063226;28;20085;-44
2022/02/24 04:14:30;;;;;;;1.65;0.30;;;;;;;;;;5076771;28;20430;-44
2022/02/24 04:16:56;;;;;;;1.33;0.20;;;;;;;;;;5055110;28;20107;-43
2022/02/24 04:19:21;;;;;;;1.25;0.20;;;;;;;;;;5073767;28;20195;-45
2022/02/24 04:21:47;;;;;;;0.38;0.20;;;;;;;;;;5073051;28;20028;-46
2022/02/24 04:24:12;;;;;;;0.47;0.30;;;;;;;;;;5061432;28;20439;-45
2022/02/24 04:26:37;;;;;;;1.65;0.47;;;;;;;;;;5071689;28;20408;-50
2022/02/24 04:29:03;;;;;;;1.65;0.20;;;;;;;;;;5087264;28;20051;-47
2022/02/24 04:31:28;;;;;;;1.20;0.22;;;;;;;;;;5084300;28;20031;-47
2022/02/24 04:33:54;;;;;;;1.20;0.25;;;;;;;;;;5072024;28;20020;-47
2022/02/24 04:36:19;;;;;;;2.03;0.38;;;;;;;;;;5054799;28;20098;-49
2022/02/24 04:38:44;;;;;;;1.35;1.05;;;;;;;;;;5072370;28;20030;-44
2022/02/24 04:41:09;;;;;;;1.35;0.30;;;;;;;;;;5049552;28;20074;-49
2022/02/24 04:43:35;;;;;;;1.10;0.57;;;;;;;;;;5072041;28;20032;-46
2022/02/24 04:46:00;;;;;;;0.93;0.40;;;;;;;;;;5085257;28;20270;-46
2022/02/24 04:48:25;;;;;;;1.35;0.40;;;;;;;;;;5088499;28;20040;-48
2022/02/24 04:50:50;;;;;;;1.42;0.32;;;;;;;;;;5079400;28;20032;-51
2022/02/24 04:53:16;;;;;;;1.58;0.35;;;;;;;;;;5076164;28;20055;-45
2022/02/24 04:55:42;;;;;;;1.55;0.40;;;;;;;;;;5080783;28;20016;-44
2022/02/24 04:58:07;;;;;;;0.85;0.22;;;;;;;;;;5078752;28;20392;-48
2022/02/24 05:00:32;;;;;;;1.20;0.35;;;;;;;;;;5071671;28;20028;-47
2022/02/24 05:02:57;;;;;;;1.35;0.40;;;;;;;;;;5080896;28;20083;-42
2022/02/24 05:05:23;;;;;;;0.60;0.20;;;;;;;;;;5078305;28;20480;-44
2022/02/24 05:07:48;;;;;;;0.95;0.20;;;;;;;;;;5092532;28;20258;-45
2022/02/24 05:10:13;;;;;;;2.40;0.40;;;;;;;;;;5087108;28;20490;-45
2022/02/24 05:12:38;;;;;;;1.48;0.28;;;;;;;;;;5055633;28;20020;-50
2022/02/24 05:15:04;;;;;;;0.77;0.13;;;;;;;;;;5074729;28;20090;-49
2022/02/24 05:17:29;;;;;;;1.17;0.20;;;;;;;;;;5072567;28;20103;-46
2022/02/24 05:19:54;;;;;;;1.27;0.30;;;;;;;;;;5071548;28;20484;-49
2022/02/24 05:22:20;;;;;;;0.65;0.10;;;;;;;;;;5070073;28;20841;-46
2022/02/24 05:24:45;;;;;;;1.00;0.40;;;;;;;;;;5068810;28;20441;-44
2022/02/24 05:27:10;;;;;;;0.35;0.20;;;;;;;;;;5049431;28;20425;-49
2022/02/24 05:29:35;;;;;;;1.25;0.20;;;;;;;;;;5051469;28;20087;-43
2022/02/24 05:32:00;;;;;;;0.63;0.20;;;;;;;;;;5068127;28;20381;-46
2022/02/24 05:34:26;;;;;;;1.50;0.20;;;;;;;;;;5071436;28;20025;-46
2022/02/24 05:36:51;;;;;;;1.70;0.40;;;;;;;;;;5072159;28;20032;-44
2022/02/24 05:39:17;;;;;;;1.40;0.20;;;;;;;;;;5072110;28;20028;-42
2022/02/24 05:41:42;;;;;;;0.40;0.10;;;;;;;;;;5076730;28;20457;-45
2022/02/24 05:44:07;;;;;;;1.53;0.33;;;;;;;;;;5076890;28;20044;-45
2022/02/24 05:46:32;;;;;;;1.07;0.30;;;;;;;;;;5062685;28;20313;-42
2022/02/24 05:48:58;;;;;;;1.25;0.35;;;;;;;;;;5078117;28;20354;-44
2022/02/24 05:51:24;;;;;;;0.85;0.20;;;;;;;;;;5071780;28;20086;-45
2022/02/24 05:53:49;;;;;;;0.50;0.20;;;;;;;;;;5066145;28;20412;-45
2022/02/24 05:56:14;;;;;;;0.97;0.43;;;;;;;;;;5072537;28;20203;-49
2022/02/24 05:58:39;;;;;;;0.60;0.20;;;;;;;;;;5076220;28;20277;-44
2022/02/24 06:01:05;;;;;;;1.00;0.22;;;;;;;;;;5075231;28;20024;-43
2022/02/24 06:03:30;;;;;;;0.20;0.10;;;;;;;;;;5066070;28;20121;-47
2022/02/24 06:05:56;;;;;;;1.85;0.30;;;;;;;;;;5078293;28;20058;-43
2022/02/24 06:08:21;;;;;;;2.25;0.28;;;;;;;;;;5075121;28;20024;-49
2022/02/24 06:10:47;;;;;;;1.02;0.22;;;;;;;;;;5074146;28;20036;-48
2022/02/24 06:13:12;;;;;;;1.07;0.20;;;;;;;;;;5079249;28;20107;-47
2022/02/24 06:15:37;;;;;;;2.30;0.60;;;;;;;;;;5056785;28;20754;-48
2022/02/24 06:18:09;;;;;;;1.00;0.60;;;;;;;;;;5075084;28;20278;-45
2022/02/24 06:20:34;;;;;;;3.55;0.93;;;;;;;;;;5075873;28;20251;-42
2022/02/24 06:22:59;;;;;;;1.23;0.35;;;;;;;;;;5049033;28;20374;-46
2022/02/24 06:25:24;;;;;;;2.95;0.60;;;;;;;;;;5062513;28;20457;-43
2022/02/24 06:27:50;;;;;;;2.22;1.00;;;;;;;;;;5078280;28;20041;-47
2022/02/24 06:30:15;;;;;;;4.27;0.87;;;;;;;;;;5079805;28;20025;-45
2022/02/24 06:32:41;;;;;;;4.18;1.58;;;;;;;;;;5053867;28;20325;-48
2022/02/24 06:35:07;;;;;;;5.43;2.08;;;;;;;;;;5089028;28;20112;-46
2022/02/24 06:37:32;;;;;;;1.48;0.50;;;;;;;;;;5072904;28;20016;-45
2022/02/24 06:39:58;;;;;;;4.43;0.93;;;;;;;;;;5075736;28;20029;-43
2022/02/24 06:42:23;;;;;;;3.78;1.75;;;;;;;;;;5077870;28;20274;-46
2022/02/24 06:44:48;;;;;;;3.13;1.37;;;;;;;;;;5073454;28;20090;-47
2022/02/24 06:47:13;;;;;;;3.20;0.40;;;;;;;;;;5065075;28;20280;-43
2022/02/24 06:49:41;;;;;;;1.23;0.20;;;;;;;;;;5066583;28;20329;-45
2022/02/24 06:52:06;;;;;;;1.17;0.22;;;;;;;;;;5070821;28;20024;-45
2022/02/24 06:54:31;;;;;;;2.13;0.40;;;;;;;;;;5070903;28;20534;-47
2022/02/24 06:56:58;;;;;;;3.40;0.30;;;;;;;;;;5055974;28;20032;-47
2022/02/24 06:59:23;;;;;;;2.75;0.52;;;;;;;;;;5073906;28;20289;-49
2022/02/24 07:01:48;;;;;;;2.83;0.60;;;;;;;;;;5075473;28;20447;-48
2022/02/24 07:04:14;;;;;;;2.17;0.30;;;;;;;;;;5077796;28;20320;-46
2022/02/24 07:06:39;;;;;;;0.82;0.35;;;;;;;;;;5092829;28;20296;-46
2022/02/24 07:09:04;;;;;;;1.15;0.35;;;;;;;;;;5056753;28;20068;-43
2022/02/24 07:11:29;;;;;;;2.53;0.40;;;;;;;;;;5078414;28;20059;-46
2022/02/24 07:13:54;;;;;;;0.60;0.20;;;;;;;;;;5079722;28;20290;-43
2022/02/24 07:16:20;;;;;;;1.25;0.30;;;;;;;;;;5073559;28;20016;-47
2022/02/24 07:18:45;;;;;;;2.17;0.30;;;;;;;;;;5075441;28;20086;-46
2022/02/24 07:21:11;;;;;;;1.17;0.20;;;;;;;;;;5079396;28;20389;-48
2022/02/24 07:23:36;;;;;;;1.80;0.40;;;;;;;;;;5066776;28;20028;-44
2022/02/24 07:26:01;;;;;;;0.63;0.20;;;;;;;;;;5080632;28;20024;-44
2022/02/24 07:28:27;;;;;;;1.67;0.40;;;;;;;;;;5076003;28;20434;-48
2022/02/24 07:30:52;;;;;;;1.03;0.20;;;;;;;;;;5077283;28;20021;-52
2022/02/24 07:33:17;;;;;;;1.42;0.20;;;;;;;;;;5082917;28;20381;-51
2022/02/24 07:35:43;;;;;;;1.48;0.40;;;;;;;;;;5072893;28;20119;-51
2022/02/24 07:38:08;;;;;;;1.95;0.20;;;;;;;;;;5078726;28;20120;-49
2022/02/24 07:40:33;;;;;;;2.45;0.30;;;;;;;;;;5073300;28;20103;-50
2022/02/24 07:42:59;;;;;;;1.05;0.30;;;;;;;;;;5073698;28;20358;-53
2022/02/24 07:45:24;;;;;;;0.90;0.20;;;;;;;;;;5071983;28;20396;-51
2022/02/24 07:47:49;;;;;;;1.33;0.25;;;;;;;;;;5063713;28;20557;-52
2022/02/24 07:50:14;;;;;;;1.05;0.35;;;;;;;;;;5072639;28;20614;-49
2022/02/24 07:52:40;;;;;;;1.40;0.35;;;;;;;;;;5073654;28;20076;-51
2022/02/24 07:55:07;;;;;;;0.70;0.20;;;;;;;;;;5066313;28;20023;-52
2022/02/24 07:57:32;;;;;;;0.30;0.20;;;;;;;;;;5065331;28;20012;-50
2022/02/24 07:59:57;;;;;;;1.38;0.20;;;;;;;;;;5063343;28;20024;-49
2022/02/24 08:02:22;;;;;;;1.95;0.47;;;;;;;;;;5067791;28;20040;-50
2022/02/24 08:04:48;;;;;;;0.77;0.20;;;;;;;;;;5076440;28;20021;-52
2022/02/24 08:07:13;;;;;;;0.63;0.20;;;;;;;;;;5080971;28;20357;-49
2022/02/24 08:09:38;;;;;;;1.10;0.20;;;;;;;;;;5085236;28;20077;-53
2022/02/24 08:14:47;;;;;;;2.67;0.30;;;;;;;;;;5060115;28;20693;-51
2022/02/24 08:17:13;;;;;;;1.20;0.30;;;;;;;;;;5064197;28;20028;-52
2022/02/24 08:19:38;;;;;;;1.17;0.20;;;;;;;;;;5063768;28;20029;-49
2022/02/24 08:22:03;;;;;;;0.68;0.20;;;;;;;;;;5081052;28;20024;-48
2022/02/24 08:24:30;;;;;;;1.67;0.30;;;;;;;;;;5069334;28;20433;-51
2022/02/24 08:26:55;;;;;;;2.40;0.35;;;;;;;;;;5078684;28;20266;-48
2022/02/24 08:29:21;;;;;;;1.43;0.30;;;;;;;;;;5074552;28;20025;-52
2022/02/24 08:31:46;;;;;;;0.90;0.30;;;;;;;;;;5047432;28;20271;-53
2022/02/24 08:34:11;;;;;;;0.70;0.20;;;;;;;;;;5058892;28;20032;-49
2022/02/24 08:36:36;;;;;;;1.67;0.20;;;;;;;;;;5057522;28;20283;-51
2022/02/24 08:39:04;;;;;;;1.45;0.20;;;;;;;;;;5066319;28;20262;-50
2022/02/24 08:41:30;;;;;;;0.75;0.20;;;;;;;;;;5061046;28;20028;-51
2022/02/24 08:43:55;;;;;;;1.08;0.20;;;;;;;;;;5048661;28;20277;-50
2022/02/24 08:46:20;;;;;;;0.70;0.30;;;;;;;;;;5054191;28;20099;-51
2022/02/24 08:48:45;;;;;;;1.13;0.20;;;;;;;;;;5065430;28;20344;-51
2022/02/24 08:51:10;;;;;;;0.63;0.20;;;;;;;;;;5061885;28;20271;-50
2022/02/24 08:53:36;;;;;;;1.47;0.30;;;;;;;;;;5038342;28;20391;-50
2022/02/24 08:56:01;;;;;;;1.07;0.23;;;;;;;;;;5074520;28;20267;-52
2022/02/24 08:58:26;;;;;;;1.13;0.30;;;;;;;;;;5054660;28;20635;-53
2022/02/24 09:00:51;;;;;;;0.95;0.20;;;;;;;;;;5065151;28;20405;-49
2022/02/24 09:03:17;;;;;;;1.23;0.17;;;;;;;;;;5068045;28;20633;-50
2022/02/24 09:05:44;;;;;;;1.45;0.30;;;;;;;;;;5070112;28;20840;-48
2022/02/24 09:08:09;;;;;;;0.95;0.30;;;;;;;;;;5068673;28;20032;-50
2022/02/24 09:10:35;;;;;;;1.13;0.20;;;;;;;;;;5061610;28;20039;-54
2022/02/24 09:13:00;;;;;;;1.98;0.30;;;;;;;;;;5057918;28;20048;-52
2022/02/24 09:15:26;;;;;;;1.05;0.30;;;;;;;;;;5076205;28;20028;-49
2022/02/24 09:17:51;;;;;;;0.82;0.20;;;;;;;;;;5082063;28;20021;-49
2022/02/24 09:20:17;;;;;;;1.25;0.60;;;;;;;;;;5069606;28;20012;-48
2022/02/24 09:22:43;;;;;;;1.38;0.30;;;;;;;;;;5058131;28;20021;-50
2022/02/24 09:25:09;;;;;;;1.90;0.30;;;;;;;;;;5052622;28;20392;-47
2022/02/24 09:27:36;;;;;;;1.65;0.25;;;;;;;;;;5053289;28;20005;-48
2022/02/24 09:30:01;;;;;;;2.28;0.30;;;;;;;;;;5052688;28;20457;-50
2022/02/24 09:32:27;;;;;;;0.65;0.20;;;;;;;;;;5062775;28;20044;-53
2022/02/24 09:34:52;;;;;;;1.48;0.30;;;;;;;;;;5069026;28;20108;-50
2022/02/24 09:37:18;;;;;;;3.22;0.20;;;;;;;;;;5054062;28;20021;-50
2022/02/24 09:39:43;;;;;;;0.98;0.20;;;;;;;;;;5067089;28;20017;-51
2022/02/24 09:42:08;;;;;;;1.05;0.20;;;;;;;;;;5066245;28;20119;-47
2022/02/24 09:44:33;;;;;;;2.13;0.28;;;;;;;;;;5069821;28;20158;-51
2022/02/24 09:46:59;;;;;;;1.63;0.30;;;;;;;;;;5068876;28;20029;-50
2022/02/24 09:49:26;;;;;;;1.00;0.20;;;;;;;;;;5067436;28;20492;-52
2022/02/24 09:51:51;;;;;;;2.35;0.40;;;;;;;;;;5063888;28;20032;-51
2022/02/24 09:54:16;;;;;;;2.80;0.30;;;;;;;;;;5057710;28;20021;-50
2022/02/24 09:56:43;;;;;;;3.05;0.57;;;;;;;;;;5060952;28;20432;-51
2022/02/24 09:59:08;;;;;;;2.25;0.20;;;;;;;;;;5056603;28;20024;-48
2022/02/24 10:01:33;;;;;;;2.63;0.20;;;;;;;;;;5059964;28;20014;-52
2022/02/24 10:04:00;;;;;;;0.52;0.20;;;;;;;;;;5071594;28;20388;-50
2022/02/24 10:06:37;;;;;;;0.85;0.30;;;;;;;;;;5062252;28;20299;-48
2022/02/24 10:09:03;;;;;;;0.93;0.20;;;;;;;;;;5061429;28;20032;-52
2022/02/24 10:11:28;;;;;;;1.33;0.22;;;;;;;;;;5064364;28;20036;-51
2022/02/24 10:14:09;;;;;;;0.47;0.20;;;;;;;;;;5050096;28;20120;-50
2022/02/24 10:16:53;;;;;;;1.95;0.20;;;;;;;;;;5056191;28;20443;-49
2022/02/24 10:19:26;;;;;;;1.30;0.22;;;;;;;;;;5069994;28;20440;-48
2022/02/24 10:22:06;;;;;;;1.20;0.20;;;;;;;;;;5067838;28;20028;-52
2022/02/24 10:24:31;;;;;;;1.38;0.30;;;;;;;;;;5069237;28;20085;-52
2022/02/24 10:27:16;;;;;;;2.00;0.20;;;;;;;;;;5044495;28;20115;-51
2022/02/24 10:29:50;;;;;;;2.47;0.20;;;;;;;;;;5073425;28;20028;-52
2022/02/24 10:32:55;;;;;;;2.55;0.22;;;;;;;;;;5069173;28;20089;-52
2022/02/24 10:35:27;;;;;;;1.35;0.20;;;;;;;;;;5026905;28;20442;-52
2022/02/24 10:38:09;;;;;;;2.78;0.30;;;;;;;;;;5024623;28;20033;-50
2022/02/24 10:40:37;;;;;;;0.73;0.28;;;;;;;;;;5027324;28;20444;-49
2022/02/24 10:43:28;;;;;;;1.52;0.30;;;;;;;;;;5031541;28;20032;-52
2022/02/24 10:46:00;;;;;;;1.50;0.20;;;;;;;;;;5031556;28;20432;-50
2022/02/24 10:48:26;;;;;;;1.08;0.20;;;;;;;;;;5032159;28;20469;-51
2022/02/24 10:50:55;;;;;;;1.63;0.30;;;;;;;;;;5027543;28;20045;-50
2022/02/24 10:53:34;;;;;;;1.15;0.20;;;;;;;;;;5011275;28;20393;-51
2022/02/24 10:56:01;;;;;;;1.10;0.30;;;;;;;;;;5022527;28;20041;-51
2022/02/24 10:58:27;;;;;;;2.40;0.30;;;;;;;;;;5029828;28;20063;-51
2022/02/24 11:01:10;;;;;;;0.88;0.20;;;;;;;;;;5031354;28;20029;-50
2022/02/24 11:03:36;;;;;;;0.95;0.25;;;;;;;;;;5024363;28;20045;-50
2022/02/24 11:06:03;;;;;;;0.73;0.20;;;;;;;;;;5031927;28;20032;-51
2022/02/24 11:08:29;;;;;;;1.20;0.28;;;;;;;;;;5031797;28;20046;-51
2022/02/24 11:10:56;;;;;;;2.83;0.50;;;;;;;;;;5042545;28;20021;-50
2022/02/24 11:13:21;;;;;;;2.20;0.30;;;;;;;;;;5054708;28;20029;-48
2022/02/24 11:15:46;;;;;;;0.60;0.10;;;;;;;;;;5026672;28;20021;-49
2022/02/24 11:18:12;;;;;;;1.95;0.30;;;;;;;;;;5039041;28;20033;-50
2022/02/24 11:20:37;;;;;;;0.60;0.20;;;;;;;;;;5035161;28;20465;-48
2022/02/24 11:23:03;;;;;;;0.93;0.20;;;;;;;;;;5047768;28;20040;-52
2022/02/24 11:25:30;;;;;;;1.00;0.20;;;;;;;;;;5048460;28;20013;-49
2022/02/24 11:27:57;;;;;;;0.82;0.20;;;;;;;;;;5047835;28;20381;-52
2022/02/24 11:30:29;;;;;;;0.70;0.20;;;;;;;;;;5054914;28;20556;-52
2022/02/24 11:32:54;;;;;;;1.27;0.25;;;;;;;;;;5050472;28;20111;-51
2022/02/24 11:35:21;;;;;;;1.77;0.10;;;;;;;;;;5061223;28;20102;-52
2022/02/24 11:37:47;;;;;;;0.90;0.20;;;;;;;;;;5056179;28;20659;-52
2022/02/24 11:40:29;;;;;;;0.60;0.15;;;;;;;;;;5038942;28;20027;-52
2022/02/24 11:43:22;;;;;;;1.35;0.25;;;;;;;;;;5047411;28;20108;-52
2022/02/24 11:45:51;;;;;;;0.50;0.20;;;;;;;;;;5049527;28;20025;-52
2022/02/24 11:48:20;;;;;;;1.02;0.10;;;;;;;;;;5064418;28;20021;-52
2022/02/24 11:50:54;;;;;;;1.10;0.10;;;;;;;;;;5051179;28;20493;-50
2022/02/24 11:53:25;;;;;;;1.45;0.20;;;;;;;;;;5045844;28;20059;-49
2022/02/24 11:55:52;;;;;;;1.13;0.20;;;;;;;;;;5052418;28;20021;-52
2022/02/24 11:58:36;;;;;;;2.25;0.38;;;;;;;;;;5058012;28;20394;-49
2022/02/24 12:01:07;;;;;;;1.45;0.20;;;;;;;;;;5055601;28;20084;-48
2022/02/24 12:03:47;;;;;;;0.73;0.20;;;;;;;;;;5072134;28;20556;-50
2022/02/24 12:06:14;;;;;;;1.13;0.30;;;;;;;;;;5067830;28;20079;-51
2022/02/24 12:08:58;;;;;;;1.17;0.10;;;;;;;;;;5056761;28;20036;-50
2022/02/24 12:11:30;;;;;;;1.05;0.20;;;;;;;;;;5056457;28;20484;-51
2022/02/24 12:13:55;;;;;;;1.33;0.20;;;;;;;;;;5072862;28;20540;-52
2022/02/24 12:16:21;;;;;;;2.75;0.22;;;;;;;;;;5051778;28;20059;-51
2022/02/24 12:18:47;;;;;;;1.77;0.17;;;;;;;;;;5054756;28;20029;-52
2022/02/24 12:21:31;;;;;;;0.50;0.10;;;;;;;;;;5053896;28;20009;-50
2022/02/24 12:23:58;;;;;;;1.15;0.10;;;;;;;;;;5045599;28;20083;-50
2022/02/24 12:26:38;;;;;;;1.73;0.20;;;;;;;;;;5054492;28;20116;-52
2022/02/24 12:29:42;;;;;;;2.08;0.20;;;;;;;;;;5052752;28;20021;-50
2022/02/24 12:32:07;;;;;;;2.10;0.20;;;;;;;;;;5037849;28;20464;-50
2022/02/24 12:34:34;;;;;;;0.40;0.10;;;;;;;;;;5034200;28;20048;-53
2022/02/24 12:37:15;;;;;;;0.55;0.13;;;;;;;;;;5052681;28;20044;-52
2022/02/24 12:39:41;;;;;;;0.50;0.10;;;;;;;;;;5063694;28;20079;-52
2022/02/24 12:42:07;;;;;;;1.27;0.10;;;;;;;;;;5041469;28;20427;-52
2022/02/24 12:44:35;;;;;;;0.52;0.10;;;;;;;;;;5035625;28;20091;-51
2022/02/24 12:47:01;;;;;;;1.38;0.10;;;;;;;;;;5053011;28;20029;-46
2022/02/24 12:49:26;;;;;;;0.40;0.10;;;;;;;;;;5066242;28;20043;-53
2022/02/24 12:51:55;;;;;;;0.75;0.10;;;;;;;;;;5053549;28;20025;-51
2022/02/24 12:54:21;;;;;;;0.40;0.25;;;;;;;;;;5044573;28;20172;-51
2022/02/24 12:56:46;;;;;;;0.40;0.13;;;;;;;;;;5064866;28;20131;-49
2022/02/24 12:59:13;;;;;;;1.65;0.20;;;;;;;;;;5052846;28;20453;-51
2022/02/24 13:01:39;;;;;;;0.40;0.10;;;;;;;;;;5051588;28;20095;-51
2022/02/24 13:04:11;;;;;;;0.82;0.30;;;;;;;;;;5014460;28;20120;-51
2022/02/24 13:06:39;;;;;;;0.98;0.20;;;;;;;;;;5042679;28;20481;-51
2022/02/24 13:12:01;;;;;;;1.58;0.20;;;;;;;;;;5052253;28;20104;-52
2022/02/24 13:14:27;;;;;;;1.20;0.17;;;;;;;;;;5051195;28;20120;-48
2022/02/24 13:16:58;;;;;;;1.25;0.15;;;;;;;;;;5051127;28;20452;-51
2022/02/24 13:19:24;;;;;;;0.77;0.10;;;;;;;;;;5043123;28;20021;-51
2022/02/24 13:21:53;;;;;;;1.20;0.10;;;;;;;;;;5055248;28;20090;-52
2022/02/24 13:24:22;;;;;;;1.23;0.10;;;;;;;;;;5042353;28;20116;-51
2022/02/24 13:26:48;;;;;;;0.68;0.15;;;;;;;;;;5051628;28;20087;-51
2022/02/24 13:29:13;;;;;;;0.95;0.10;;;;;;;;;;5053342;28;20432;-53
2022/02/24 13:31:38;;;;;;;1.65;0.20;;;;;;;;;;5057674;28;20032;-53
2022/02/24 13:34:13;;;;;;;0.77;0.22;;;;;;;;;;5037659;28;20120;-51
2022/02/24 13:36:38;;;;;;;0.20;0.10;;;;;;;;;;5051092;28;20021;-53
2022/02/24 13:39:04;;;;;;;0.82;0.10;;;;;;;;;;5051879;28;20075;-53
2022/02/24 13:41:29;;;;;;;0.32;0.10;;;;;;;;;;5050332;28;20525;-51
2022/02/24 13:43:57;;;;;;;0.50;0.20;;;;;;;;;;5053223;28;20025;-48
2022/02/24 13:46:22;;;;;;;0.47;0.10;;;;;;;;;;5050848;28;20029;-51
2022/02/24 13:48:49;;;;;;;0.37;0.00;;;;;;;;;;5050016;28;20052;-49
2022/02/24 13:51:17;;;;;;;0.17;0.08;;;;;;;;;;5046451;28;20272;-48
2022/02/24 13:53:48;;;;;;;0.88;0.10;;;;;;;;;;5035340;28;20028;-52
2022/02/24 13:56:13;;;;;;;0.85;0.17;;;;;;;;;;5060802;28;20041;-50
2022/02/24 13:58:42;;;;;;;0.55;0.10;;;;;;;;;;5045038;28;20123;-50
2022/02/24 14:01:09;;;;;;;1.13;0.20;;;;;;;;;;5044815;28;20040;-49
2022/02/24 14:03:44;;;;;;;0.45;0.17;;;;;;;;;;5055001;28;20068;-52
2022/02/24 14:06:14;;;;;;;0.70;0.20;;;;;;;;;;5056860;28;20071;-53
2022/02/24 14:08:40;;;;;;;1.23;0.30;;;;;;;;;;5054611;28;20070;-48
2022/02/24 14:11:07;;;;;;;0.90;0.13;;;;;;;;;;5053853;28;20023;-48
2022/02/24 14:13:32;;;;;;;0.90;0.20;;;;;;;;;;5054488;28;20386;-50
2022/02/24 14:15:57;;;;;;;1.60;0.30;;;;;;;;;;5050086;28;20017;-53
2022/02/24 14:18:22;;;;;;;0.43;0.10;;;;;;;;;;5060060;28;20048;-51
2022/02/24 14:20:50;;;;;;;0.98;0.20;;;;;;;;;;5054822;28;20021;-49
2022/02/24 14:23:15;;;;;;;0.88;0.10;;;;;;;;;;5044374;28;20049;-52
2022/02/24 14:25:40;;;;;;;1.27;0.45;;;;;;;;;;5034531;28;20067;-50
2022/02/24 14:28:06;;;;;;;0.93;0.20;;;;;;;;;;5046267;28;20469;-51
2022/02/24 14:30:31;;;;;;;0.40;0.10;;;;;;;;;;5056272;28;20056;-52
2022/02/24 14:32:56;;;;;;;0.47;0.20;;;;;;;;;;5052858;28;20036;-54
2022/02/24 14:35:21;;;;;;;2.10;0.10;;;;;;;;;;5060780;28;20103;-50
2022/02/24 14:37:46;;;;;;;0.77;0.10;;;;;;;;;;5054699;28;20270;-53
2022/02/24 14:40:12;;;;;;;1.10;0.17;;;;;;;;;;5055003;28;20360;-50
2022/02/24 14:42:37;;;;;;;0.52;0.10;;;;;;;;;;5066746;28;20636;-50
2022/02/24 14:45:02;;;;;;;1.92;0.30;;;;;;;;;;5067438;28;21081;-49
2022/02/24 14:47:28;;;;;;;0.40;0.10;;;;;;;;;;5072020;28;20504;-49